Palace, Missouri
Current Conditions -  °F | °C
As of 2:58 AM on Friday 24 Oct 2014 (Local Time) from KTBN Reporting Station
Overcast Overcast  
Wind Chill: 52°   Ceiling: 1100
Heat Index: 52°   Visibility: 10mi
Dew Point: 51°   Wind: 3mph
Humidity: 99%   Direction: 230°SW
Pressure: 30.11"   Gusts: NA
Location:  37.492°N, 92.1844°W
Report Text: KTBN 240758Z AUTO 23003KT 10SM OVC011 11/11 A3011 RMK AO2 SLP197 T01090107
Loading
Personal Weather Stations






























Interactive Weather Map
Tropical Storm Tracking
New forecast layout! Learn more

10-Day Weather Forecast

Advertisements
Track Severe Weather on mobile